Gonzalo López

Olheiro - Atlético Madrid
4 Jun 2028
Domingo
Processo

Personalidade

Adaptabilidade (10) Ambição (5) Controvérsia (15) Lealdade (5) Pressão (9) Profissionalismo (3) Espírito Esportivo (5) Temperamento (9)

Perfil

Estilo de Treinamento Democrático
Licença Nacional B
Determinação 16
Gestão de Pessoas 9
Motivação 15
Disciplina 16
Satisfação no Trabalho
100%
Fadiga
0%
Função Olheiro
Salário 83.5K p/s
Contrato 14.03.2030

Desempenho

Comportamento Bom
Eficácia do Treinamento
56%
Desenvolvimento do Jogador
55%
Prevenção de Lesões
35%
Implementação Tática
40%

Eventos Recentes

Avaliou um jogador agora
Avaliou um jogador agora

Monitorando agora

51
Jogador Clube Status Habilidade Confiança Observado Última observação Último voto
Yaser Asprilla Girona Relatório pronto 149 / 150 93% 1 02.06.2028 -
Ilias Akhomach Villarreal Relatório pronto 149 / 151 93% 1 01.06.2028 -
Taiwo Awoniyi Coventry City Ativo 144 / 142 40% 1 01.06.2028 -
Jean-Philippe Mateta Crystal Palace Ativo 156 / 153 40% 1 01.06.2028 -
Jorge Pascual Granada Ativo 143 / 140 40% 1 01.06.2028 -
Ronan Kpakio Cardiff City Ativo 123 / 126 40% 1 01.06.2028 -
Lennart Karl VfL Wolfsburg Ativo 139 / 145 40% 1 01.06.2028 -
Geovany Quenda Chelsea Ativo 150 / 155 40% 1 01.06.2028 -
Jorge Salinas Racing Santander Ativo 129 / 138 40% 1 17.01.2028 -
Bahmed Deuff FC Metz Ativo 122 / 127 40% 1 17.01.2028 -
Robin Risser RC Lens Ativo 152 / 153 40% 4 01.01.2028 -
Carl Rushworth Burnley Ativo 150 / 149 40% 1 01.01.2028 -
Radek Vítek Middlesbrough Ativo 143 / 146 40% 1 31.08.2027 -
Kostantis Tzolakis Hull City Ativo 151 / 150 40% 6 30.08.2027 -
Kauã Moraes Cruzeiro Ativo 129 / 128 40% 2 27.08.2027 -
Bazoumana Touré Newcastle United Ativo 141 / 148 40% 1 27.08.2027 -
Kendry Páez Chelsea Ativo 133 / 139 40% 2 25.08.2027 -
Mateo Silvetti New England Revolution Ativo 123 / 129 40% 3 25.08.2027 -
Nicolás Barros Schelotto Gimnasia La Plata Ativo 117 / 130 40% 1 25.08.2027 -
Estêvão Chelsea Ativo 142 / 153 40% 7 24.08.2027 -
Lois Mignolet Racing Genk Ativo 144 / 148 40% 2 24.08.2027 -
Claudio Echeverri Manchester City Ativo 132 / 136 40% 4 21.08.2027 -
Elias Baum Eintracht Frankfurt Ativo 136 / 135 40% 2 21.08.2027 -
Assane Diao Como Ativo 153 / 152 40% 1 19.08.2027 -
Myles Lewis-Skelly Arsenal Ativo 154 / 160 40% 1 19.08.2027 -
Edmund Baidoo Borussia Dortmund Ativo 131 / 135 40% 2 18.08.2027 -
Keny Arroyo Cruzeiro Ativo 129 / 129 40% 1 16.08.2027 -
Yusi Alavés Ativo 136 / 138 40% 1 16.08.2027 -
Yoram Zague Paris Saint-Germain Ativo 122 / 128 40% 5 15.08.2027 -
Saïmon Bouabré Al-Hilal Ativo 130 / 136 40% 4 08.08.2027 -
Ishé Samuels-Smith Chelsea Ativo 117 / 127 40% 1 08.08.2027 -
Robinio Vaz AS Roma Ativo 120 / 127 40% 1 06.08.2027 -
Kauã Elias Shakhtar Ativo 137 / 139 40% 4 05.08.2027 -
Roger Fernandes Manchester City Ativo 139 / 143 40% 6 03.08.2027 -
Axel Tape Bayer Leverkusen Ativo 131 / 135 40% 5 02.08.2027 -
Niccolò Fortini Fiorentina Ativo 130 / 135 40% 1 02.08.2027 -
Abdelhamid Ait Boudlal Stade Rennais Ativo 119 / 126 40% 1 02.08.2027 -
Rayan Bournemouth Ativo 138 / 144 40% 4 22.07.2027 -
Alisson Shakhtar Ativo 135 / 142 40% 5 21.07.2027 -
Harry Amass Manchester United Ativo 136 / 142 40% 5 20.07.2027 -
Rabby Nzingoula West Bromwich Albion Ativo 125 / 126 40% 3 19.07.2027 -
Jobe Bellingham Manchester City Ativo 138 / 145 40% 2 13.07.2027 -
Vitor Reis Manchester City Ativo 138 / 140 40% 1 02.07.2027 -
Henrique Carmo CSKA Moscow Ativo 119 / 128 40% 1 15.06.2027 -
Senne Lammens Manchester United Ativo 157 / 156 40% 7 14.06.2027 -
Jaydee Canvot Crystal Palace Ativo 131 / 137 40% 2 21.01.2027 -
Vitor Roque Palmeiras Ativo 144 / 145 40% 2 14.01.2027 -
Antoni Milambo Brentford Ativo 138 / 141 40% 1 14.01.2027 -
Souza Tottenham Ativo 120 / 127 40% 1 05.01.2027 -
Breno Bidon Corinthians Ativo 130 / 134 40% 1 05.01.2027 -
Yarek Gąsiorowski PSV Ativo 135 / 137 40% 1 31.08.2026 Mais informações